Time;durP1;ratioP1;P1;durP2;ratioP2;P2;SDS_P1;SDS_P2;PMS_P1;PMS_P2;Temp;Humidity;BMP_temperature;BMP_pressure;BME280_temperature;BME280_humidity;BME280_pressure;Samples;Min_cycle;Max_cycle;Signal;HPM_P1;HPM_P2
2023/05/05 00:00:16;;;;;;;3.05;1.88;;;1.30;99.90;;;;;;5069292;28;20052;-82
2023/05/05 00:02:43;;;;;;;2.13;1.65;;;1.40;99.90;;;;;;5066500;28;20053;-85
2023/05/05 00:05:10;;;;;;;1.88;1.77;;;1.30;99.90;;;;;;5059904;28;20102;-82
2023/05/05 00:07:37;;;;;;;2.08;1.60;;;1.30;99.90;;;;;;5086423;28;20044;-81
2023/05/05 00:10:06;;;;;;;2.25;1.50;;;1.30;99.90;;;;;;5045285;28;20056;-81
2023/05/05 00:12:33;;;;;;;3.33;1.58;;;1.30;99.90;;;;;;5068317;28;20040;-82
2023/05/05 00:15:02;;;;;;;3.40;2.17;;;1.30;99.90;;;;;;5068338;28;20562;-81
2023/05/05 00:17:32;;;;;;;2.85;1.60;;;1.30;99.90;;;;;;5053800;28;20048;-81
2023/05/05 00:19:59;;;;;;;4.03;1.60;;;1.30;99.90;;;;;;5067661;28;20068;-83
2023/05/05 00:22:26;;;;;;;1.60;1.50;;;1.20;99.90;;;;;;5064088;28;20053;-81
2023/05/05 00:24:54;;;;;;;5.78;1.30;;;1.20;99.90;;;;;;5078794;28;20144;-82
2023/05/05 00:27:21;;;;;;;3.08;1.38;;;1.20;99.90;;;;;;5057825;28;20066;-82
2023/05/05 00:29:48;;;;;;;1.80;1.70;;;1.20;99.90;;;;;;5077741;28;20127;-82
2023/05/05 00:32:17;;;;;;;1.77;1.60;;;1.20;99.90;;;;;;5076101;28;20136;-83
2023/05/05 00:34:44;;;;;;;1.95;1.45;;;1.20;99.90;;;;;;5074605;28;20079;-82
2023/05/05 00:37:11;;;;;;;1.45;1.35;;;1.30;99.90;;;;;;5071478;28;20140;-83
2023/05/05 00:39:39;;;;;;;2.25;1.23;;;1.20;99.90;;;;;;5068606;28;20545;-82
2023/05/05 00:42:06;;;;;;;1.95;1.50;;;1.20;99.90;;;;;;5071957;28;20058;-81
2023/05/05 00:44:39;;;;;;;1.77;1.48;;;1.20;99.90;;;;;;5085052;28;20090;-81
2023/05/05 00:47:08;;;;;;;1.35;1.25;;;1.20;99.90;;;;;;5068627;28;20083;-82
2023/05/05 00:49:37;;;;;;;2.80;1.67;;;1.10;99.90;;;;;;5072018;28;20037;-80
2023/05/05 00:52:06;;;;;;;1.40;1.30;;;1.10;99.90;;;;;;5073518;28;20457;-82
2023/05/05 00:54:34;;;;;;;2.40;1.48;;;1.10;99.90;;;;;;5072596;28;20045;-83
2023/05/05 00:57:02;;;;;;;6.03;1.45;;;1.10;99.90;;;;;;5070321;28;20049;-83
2023/05/05 00:59:30;;;;;;;2.10;1.20;;;1.10;99.90;;;;;;5071730;28;20519;-83
2023/05/05 01:01:58;;;;;;;4.85;1.58;;;1.10;99.90;;;;;;5071917;28;20052;-81
2023/05/05 01:04:26;;;;;;;2.20;1.25;;;1.10;99.90;;;;;;5055182;28;20052;-82
2023/05/05 01:07:07;;;;;;;1.30;1.20;;;1.10;99.90;;;;;;5070636;28;20056;-81
2023/05/05 01:09:44;;;;;;;2.22;1.58;;;1.10;99.90;;;;;;5072877;28;20440;-84
2023/05/05 01:12:20;;;;;;;1.67;1.55;;;1.10;99.90;;;;;;5069109;28;20048;-83
2023/05/05 01:14:59;;;;;;;1.63;1.50;;;1.10;99.90;;;;;;5086761;28;20044;-81
2023/05/05 01:17:35;;;;;;;2.53;1.63;;;1.10;99.90;;;;;;5087989;28;20068;-81
2023/05/05 01:20:14;;;;;;;2.13;1.48;;;1.10;99.90;;;;;;5071551;28;20500;-81
2023/05/05 01:22:53;;;;;;;3.35;2.28;;;1.10;99.90;;;;;;5088010;28;20059;-83
2023/05/05 01:25:49;;;;;;;1.60;1.50;;;1.00;99.90;;;;;;5054774;28;20140;-82
2023/05/05 01:28:34;;;;;;;1.70;1.60;;;1.00;99.90;;;;;;5053307;28;20160;-83
2023/05/05 01:31:28;;;;;;;1.92;1.70;;;1.00;99.90;;;;;;5072059;28;20102;-82
2023/05/05 01:34:03;;;;;;;3.55;1.48;;;1.00;99.90;;;;;;5085657;28;20056;-81
2023/05/05 01:36:35;;;;;;;1.38;1.27;;;1.00;99.90;;;;;;5058933;28;20127;-82
2023/05/05 01:39:05;;;;;;;3.00;1.80;;;1.00;99.90;;;;;;5071501;28;20044;-83
2023/05/05 01:41:38;;;;;;;1.88;1.77;;;1.00;99.90;;;;;;5071920;28;20064;-82
2023/05/05 01:44:07;;;;;;;2.60;1.65;;;1.00;99.90;;;;;;5051694;28;20045;-82
2023/05/05 01:46:36;;;;;;;2.22;1.50;;;1.00;99.90;;;;;;5069674;28;20052;-81
2023/05/05 01:49:05;;;;;;;1.83;1.73;;;1.00;99.90;;;;;;5069707;28;20049;-82
2023/05/05 01:51:34;;;;;;;2.13;1.38;;;1.00;99.90;;;;;;5069135;28;20052;-82
2023/05/05 01:54:06;;;;;;;3.65;1.80;;;1.10;99.90;;;;;;5070812;28;20049;-83
2023/05/05 01:56:37;;;;;;;2.65;1.95;;;1.10;99.90;;;;;;5055457;28;20069;-82
2023/05/05 01:59:06;;;;;;;1.60;1.40;;;1.10;99.90;;;;;;5068593;28;20111;-81
2023/05/05 02:01:38;;;;;;;1.92;1.80;;;1.10;99.90;;;;;;5061368;28;20033;-84
2023/05/05 02:04:09;;;;;;;4.43;1.75;;;1.10;99.90;;;;;;5051306;28;20513;-82
2023/05/05 02:06:40;;;;;;;1.75;1.52;;;1.10;99.90;;;;;;5071754;28;20045;-83
2023/05/05 02:09:08;;;;;;;1.50;1.40;;;1.20;99.90;;;;;;5085566;28;20049;-82
2023/05/05 02:11:36;;;;;;;2.13;1.50;;;1.20;99.90;;;;;;5069238;28;20607;-81
2023/05/05 02:14:05;;;;;;;1.85;1.48;;;1.30;99.90;;;;;;5064927;28;20392;-83
2023/05/05 02:16:33;;;;;;;2.25;1.45;;;1.40;99.90;;;;;;5069253;28;20036;-82
2023/05/05 02:19:03;;;;;;;1.63;1.20;;;1.50;99.90;;;;;;5068267;28;20044;-82
2023/05/05 02:21:33;;;;;;;2.75;1.70;;;1.60;99.90;;;;;;5054561;28;20057;-83
2023/05/05 02:24:02;;;;;;;3.13;1.40;;;1.70;99.90;;;;;;5053836;28;20453;-83
2023/05/05 02:26:31;;;;;;;2.17;1.80;;;1.80;99.90;;;;;;5071422;28;20075;-84
2023/05/05 02:29:04;;;;;;;1.77;1.65;;;1.90;99.90;;;;;;5066131;28;20493;-83
2023/05/05 02:31:34;;;;;;;2.50;1.70;;;2.00;99.90;;;;;;5070712;28;20048;-83
2023/05/05 02:34:05;;;;;;;2.45;1.50;;;2.00;99.90;;;;;;5070341;28;20310;-84
2023/05/05 02:36:41;;;;;;;4.20;2.00;;;2.10;99.90;;;;;;5069659;28;20458;-83
2023/05/05 02:39:14;;;;;;;2.63;1.70;;;2.10;99.90;;;;;;5066181;28;20041;-82
2023/05/05 02:41:45;;;;;;;1.80;1.40;;;2.10;99.90;;;;;;5058548;28;20142;-82
2023/05/05 02:44:24;;;;;;;1.35;1.25;;;2.10;99.90;;;;;;5070058;28;20070;-82
2023/05/05 02:46:53;;;;;;;3.08;1.58;;;2.20;99.90;;;;;;5067511;28;20095;-81
2023/05/05 02:49:20;;;;;;;2.75;1.85;;;2.20;99.90;;;;;;5058829;28;20136;-83
2023/05/05 02:51:50;;;;;;;1.85;1.60;;;2.20;99.90;;;;;;5065604;28;20488;-81
2023/05/05 02:54:27;;;;;;;2.47;1.50;;;2.30;99.90;;;;;;5070501;28;20051;-82
2023/05/05 02:56:57;;;;;;;2.65;1.80;;;2.40;99.90;;;;;;5063095;28;20062;-82
2023/05/05 02:59:33;;;;;;;1.65;1.35;;;2.40;99.90;;;;;;5066220;28;20053;-78
2023/05/05 03:02:14;;;;;;;2.03;1.63;;;2.50;99.90;;;;;;5061261;28;20059;-81
2023/05/05 03:04:46;;;;;;;3.70;1.50;;;2.50;99.90;;;;;;5064529;28;20055;-83
2023/05/05 03:07:23;;;;;;;2.85;1.55;;;2.60;99.90;;;;;;5049912;28;20167;-84
2023/05/05 03:09:57;;;;;;;2.97;1.58;;;2.60;99.90;;;;;;5049693;28;20053;-82
2023/05/05 03:12:34;;;;;;;5.55;2.45;;;2.60;99.90;;;;;;5061065;28;20102;-82
2023/05/05 03:15:13;;;;;;;1.65;1.55;;;2.60;99.90;;;;;;5044580;28;20072;-82
2023/05/05 03:17:42;;;;;;;5.30;1.42;;;2.70;99.90;;;;;;5069746;28;20505;-83
2023/05/05 03:20:12;;;;;;;3.47;1.55;;;2.70;99.90;;;;;;5035910;28;20072;-82
2023/05/05 03:22:45;;;;;;;1.65;1.50;;;2.70;99.90;;;;;;5069955;28;20055;-79
2023/05/05 03:25:14;;;;;;;2.33;1.40;;;2.70;99.90;;;;;;5070687;28;20060;-83
2023/05/05 03:27:42;;;;;;;4.13;1.65;;;2.70;99.90;;;;;;5068934;28;20060;-79
2023/05/05 03:30:12;;;;;;;3.40;1.67;;;2.80;99.90;;;;;;5068976;28;20045;-82
2023/05/05 03:32:47;;;;;;;1.55;1.38;;;2.80;99.90;;;;;;5069401;28;20041;-82
2023/05/05 03:35:14;;;;;;;8.45;1.92;;;2.90;99.90;;;;;;5071140;28;20095;-81
2023/05/05 03:37:42;;;;;;;6.18;1.75;;;2.90;99.90;;;;;;5060727;28;20055;-82
2023/05/05 03:40:12;;;;;;;2.50;1.77;;;2.90;99.90;;;;;;5068193;28;20131;-83
2023/05/05 03:42:39;;;;;;;5.25;2.15;;;2.90;99.90;;;;;;5068362;28;20523;-81
2023/05/05 03:45:08;;;;;;;2.13;1.92;;;3.00;99.90;;;;;;5073479;28;20446;-84
2023/05/05 03:47:36;;;;;;;1.73;1.60;;;3.10;99.90;;;;;;5065225;28;20420;-84
2023/05/05 03:50:03;;;;;;;9.02;2.00;;;3.10;99.90;;;;;;5065031;28;20148;-83
2023/05/05 03:52:31;;;;;;;3.28;1.42;;;3.10;99.90;;;;;;5063843;28;20536;-82
2023/05/05 03:54:59;;;;;;;2.28;1.50;;;3.20;99.90;;;;;;5053946;28;20048;-82
2023/05/05 03:57:28;;;;;;;1.70;1.60;;;3.40;99.90;;;;;;5069723;28;20076;-82
2023/05/05 03:59:56;;;;;;;3.83;1.40;;;3.60;99.90;;;;;;5067709;28;20044;-81
2023/05/05 04:02:23;;;;;;;5.00;1.77;;;3.70;99.90;;;;;;5070191;28;20052;-81
2023/05/05 04:04:50;;;;;;;1.75;1.52;;;3.80;99.90;;;;;;5053267;28;20045;-84
2023/05/05 04:07:17;;;;;;;4.85;1.70;;;4.00;99.90;;;;;;5053129;28;20118;-81
2023/05/05 04:09:45;;;;;;;2.58;1.95;;;4.10;99.90;;;;;;5052135;28;20514;-82
2023/05/05 04:12:12;;;;;;;5.13;1.83;;;4.20;99.90;;;;;;5054201;28;20474;-81
2023/05/05 04:14:42;;;;;;;3.30;1.85;;;4.30;99.90;;;;;;5069323;28;20072;-81
2023/05/05 04:17:11;;;;;;;2.95;1.85;;;4.40;99.90;;;;;;5061236;28;20037;-82
2023/05/05 04:19:39;;;;;;;5.93;1.80;;;4.50;99.90;;;;;;5058154;28;20051;-82
2023/05/05 04:22:08;;;;;;;5.30;2.25;;;4.50;99.90;;;;;;5061699;28;20552;-81
2023/05/05 04:24:36;;;;;;;3.03;2.47;;;4.60;99.90;;;;;;5069758;28;20513;-82
2023/05/05 04:27:03;;;;;;;2.90;1.90;;;4.50;99.90;;;;;;5077202;28;20069;-82
2023/05/05 04:29:31;;;;;;;3.60;1.73;;;4.60;99.90;;;;;;5086510;28;20504;-74
2023/05/05 04:32:00;;;;;;;4.43;2.20;;;4.80;99.90;;;;;;5076907;28;20044;-75
2023/05/05 04:34:28;;;;;;;5.03;1.85;;;5.00;99.90;;;;;;5065831;28;20033;-73
2023/05/05 04:36:56;;;;;;;3.55;1.63;;;5.30;99.90;;;;;;5072877;28;20076;-74
2023/05/05 04:39:23;;;;;;;1.63;1.42;;;5.40;99.90;;;;;;5071157;28;20106;-75
2023/05/05 04:41:50;;;;;;;1.55;1.30;;;5.30;99.90;;;;;;5062659;28;20467;-73
2023/05/05 04:44:18;;;;;;;2.00;1.80;;;5.10;99.90;;;;;;5079336;28;20051;-74
2023/05/05 04:46:54;;;;;;;1.58;1.48;;;4.90;99.90;;;;;;5078755;28;20044;-74
2023/05/05 04:49:24;;;;;;;2.00;1.80;;;4.60;99.90;;;;;;5060531;28;20063;-75
2023/05/05 04:51:51;;;;;;;2.03;1.80;;;4.60;99.90;;;;;;5071858;28;20122;-74
2023/05/05 04:54:19;;;;;;;2.30;2.10;;;4.70;99.90;;;;;;5073469;28;20126;-74
2023/05/05 04:56:46;;;;;;;2.22;1.95;;;4.80;99.90;;;;;;5068983;28;20037;-73
2023/05/05 04:59:14;;;;;;;2.78;2.00;;;4.90;99.90;;;;;;5065140;28;20048;-73
2023/05/05 05:01:42;;;;;;;2.15;1.73;;;4.80;99.90;;;;;;5049438;28;20047;-75
2023/05/05 05:04:10;;;;;;;1.88;1.77;;;4.60;99.90;;;;;;5061347;28;20083;-75
2023/05/05 05:06:39;;;;;;;3.10;2.20;;;4.50;99.90;;;;;;5073080;28;20041;-81
2023/05/05 05:09:06;;;;;;;1.75;1.65;;;4.50;99.90;;;;;;5074453;28;20102;-80
2023/05/05 05:11:33;;;;;;;2.20;1.85;;;4.40;99.90;;;;;;5063061;28;20037;-83
2023/05/05 05:14:00;;;;;;;2.47;2.13;;;4.40;99.90;;;;;;5072007;28;20044;-79
2023/05/05 05:16:28;;;;;;;3.47;2.20;;;4.50;99.90;;;;;;5071068;28;20106;-82
2023/05/05 05:18:55;;;;;;;1.98;1.77;;;4.40;99.90;;;;;;5066087;28;20087;-80
2023/05/05 05:21:23;;;;;;;2.38;1.67;;;4.40;99.90;;;;;;5069631;28;20068;-80
2023/05/05 05:23:52;;;;;;;2.83;1.63;;;4.40;99.90;;;;;;5069618;28;20052;-80
2023/05/05 05:26:20;;;;;;;3.00;1.73;;;4.30;99.90;;;;;;5070087;28;20135;-80
2023/05/05 05:28:48;;;;;;;2.58;1.70;;;4.30;99.90;;;;;;5071655;28;20044;-81
2023/05/05 05:31:15;;;;;;;1.88;1.77;;;4.30;99.90;;;;;;5070704;28;20166;-79
2023/05/05 05:33:42;;;;;;;2.40;2.00;;;4.40;99.90;;;;;;5069326;28;20044;-80
2023/05/05 05:36:11;;;;;;;2.97;2.15;;;4.30;99.90;;;;;;5051444;28;20091;-80
2023/05/05 05:38:38;;;;;;;5.53;2.47;;;4.20;99.90;;;;;;5066400;28;20063;-74
2023/05/05 05:41:08;;;;;;;2.30;2.10;;;4.20;99.90;;;;;;5070230;28;20094;-72
2023/05/05 05:43:37;;;;;;;2.85;1.90;;;4.10;99.90;;;;;;5070594;28;20052;-72
2023/05/05 05:46:05;;;;;;;2.03;1.85;;;4.10;99.90;;;;;;5070172;28;20056;-74
2023/05/05 05:48:36;;;;;;;1.90;1.73;;;4.20;99.90;;;;;;5049164;28;20040;-75
2023/05/05 05:51:04;;;;;;;2.15;1.98;;;4.30;99.90;;;;;;5066298;28;20044;-73
2023/05/05 05:53:32;;;;;;;2.00;1.90;;;4.50;99.90;;;;;;5056130;28;20135;-80
2023/05/05 05:56:01;;;;;;;2.50;2.28;;;4.70;99.90;;;;;;5067672;28;20539;-77
2023/05/05 05:58:29;;;;;;;2.00;1.90;;;5.00;99.90;;;;;;5069380;28;20052;-79
2023/05/05 06:00:58;;;;;;;2.65;2.25;;;5.40;99.90;;;;;;5072132;28;20582;-81
2023/05/05 06:03:34;;;;;;;2.67;2.08;;;5.80;99.90;;;;;;5052953;28;20052;-80
2023/05/05 06:06:01;;;;;;;2.08;1.98;;;6.00;99.90;;;;;;5065411;28;20047;-76
2023/05/05 06:08:30;;;;;;;3.13;2.08;;;6.20;99.90;;;;;;5065715;28;20048;-76
2023/05/05 06:10:59;;;;;;;2.10;1.95;;;6.20;99.90;;;;;;5066406;28;20044;-76
2023/05/05 06:13:26;;;;;;;2.08;1.70;;;6.30;99.90;;;;;;5068671;28;20060;-75
2023/05/05 06:15:55;;;;;;;2.30;1.98;;;6.50;99.90;;;;;;5070406;28;20059;-73
2023/05/05 06:18:23;;;;;;;5.55;2.00;;;6.80;99.90;;;;;;5076252;28;20053;-75
2023/05/05 06:20:51;;;;;;;3.33;2.33;;;7.20;99.90;;;;;;5069472;28;20048;-75
2023/05/05 06:23:20;;;;;;;2.30;2.10;;;7.40;99.90;;;;;;5086511;28;20094;-75
2023/05/05 06:25:53;;;;;;;2.30;2.10;;;7.70;99.90;;;;;;5071071;28;20143;-75
2023/05/05 06:28:21;;;;;;;2.20;2.03;;;7.60;99.90;;;;;;5071617;28;20055;-73
2023/05/05 06:30:48;;;;;;;2.03;1.92;;;7.40;99.90;;;;;;5071716;28;20425;-74
2023/05/05 06:33:17;;;;;;;2.65;2.33;;;7.30;99.90;;;;;;5069388;28;20048;-74
2023/05/05 06:35:45;;;;;;;2.50;2.30;;;7.00;99.90;;;;;;5059603;28;20117;-74
2023/05/05 06:38:13;;;;;;;2.38;2.17;;;6.70;99.90;;;;;;5058836;28;20563;-74
2023/05/05 06:40:41;;;;;;;4.00;2.78;;;6.50;99.90;;;;;;5060668;28;20040;-74
2023/05/05 06:43:08;;;;;;;5.95;2.25;;;6.30;99.90;;;;;;5042281;28;20049;-74
2023/05/05 06:45:42;;;;;;;2.67;2.42;;;6.30;99.90;;;;;;5049746;28;20583;-75
2023/05/05 06:48:09;;;;;;;4.38;2.72;;;6.30;99.90;;;;;;5060137;28;20045;-73
2023/05/05 06:50:39;;;;;;;4.65;2.53;;;6.50;99.90;;;;;;5059974;28;20110;-75
2023/05/05 06:53:07;;;;;;;2.90;2.60;;;6.70;99.90;;;;;;5064638;28;20105;-82
2023/05/05 06:55:34;;;;;;;5.53;2.60;;;6.60;99.90;;;;;;5080762;28;20055;-80
2023/05/05 06:58:01;;;;;;;2.28;2.10;;;6.80;99.90;;;;;;5066562;28;20505;-79
2023/05/05 07:00:29;;;;;;;2.45;2.25;;;7.10;99.90;;;;;;5064438;28;20678;-81
2023/05/05 07:02:56;;;;;;;2.53;2.33;;;7.80;99.90;;;;;;5059089;28;20095;-79
2023/05/05 07:05:23;;;;;;;2.10;1.90;;;8.40;99.90;;;;;;5058303;28;20052;-80
2023/05/05 07:07:52;;;;;;;2.10;1.95;;;8.50;99.90;;;;;;5062930;28;20144;-80
2023/05/05 07:10:20;;;;;;;1.80;1.65;;;8.70;99.90;;;;;;5066618;28;20509;-79
2023/05/05 07:12:47;;;;;;;5.15;2.25;;;8.40;99.90;;;;;;5071727;28;20056;-80
2023/05/05 07:15:14;;;;;;;1.90;1.75;;;8.10;99.90;;;;;;5063413;28;20052;-82
2023/05/05 07:17:42;;;;;;;5.43;2.80;;;7.70;99.90;;;;;;5060737;28;20378;-80
2023/05/05 07:20:10;;;;;;;2.28;2.08;;;7.40;99.90;;;;;;5069598;28;20044;-80
2023/05/05 07:22:37;;;;;;;2.20;1.92;;;7.70;99.90;;;;;;5063464;28;20040;-77
2023/05/05 07:25:07;;;;;;;2.42;2.22;;;9.00;99.90;;;;;;5058424;28;20111;-78
2023/05/05 07:27:37;;;;;;;2.38;2.00;;;10.80;99.90;;;;;;5061731;28;20420;-79
2023/05/05 07:30:06;;;;;;;6.32;2.90;;;12.30;99.90;;;;;;5061473;28;20049;-77
2023/05/05 07:32:33;;;;;;;2.88;2.58;;;13.40;94.00;;;;;;5058919;28;20040;-74
2023/05/05 07:35:01;;;;;;;5.88;2.03;;;13.90;89.00;;;;;;5057425;28;20041;-75
2023/05/05 07:37:28;;;;;;;3.17;1.92;;;13.20;82.20;;;;;;5062287;28;20067;-76
2023/05/05 07:39:55;;;;;;;3.47;1.60;;;12.20;82.60;;;;;;5059637;28;20148;-75
2023/05/05 07:42:23;;;;;;;4.25;1.30;;;11.30;82.20;;;;;;5060728;28;20050;-75
2023/05/05 07:44:51;;;;;;;1.27;0.90;;;10.60;85.40;;;;;;5071194;28;20056;-74
2023/05/05 07:47:19;;;;;;;1.45;1.20;;;10.70;86.60;;;;;;5073232;28;20044;-80
2023/05/05 07:49:46;;;;;;;2.00;1.15;;;12.10;82.00;;;;;;5070177;28;20056;-78
2023/05/05 07:52:13;;;;;;;3.28;1.10;;;12.60;74.70;;;;;;5067103;28;20604;-80
2023/05/05 07:54:41;;;;;;;1.30;1.20;;;12.10;73.80;;;;;;5066534;28;20056;-80
2023/05/05 07:57:08;;;;;;;1.20;1.10;;;11.30;75.70;;;;;;5068573;28;20131;-80
2023/05/05 07:59:39;;;;;;;1.60;1.30;;;10.40;78.90;;;;;;5055247;28;20059;-78
2023/05/05 08:02:07;;;;;;;1.95;1.50;;;9.70;80.70;;;;;;5054469;28;20147;-82
2023/05/05 08:04:35;;;;;;;2.00;1.50;;;9.10;82.20;;;;;;5072649;28;20045;-82
2023/05/05 08:07:02;;;;;;;1.40;1.30;;;8.70;86.30;;;;;;5065153;28;20064;-78
2023/05/05 08:09:29;;;;;;;3.95;1.40;;;8.60;88.10;;;;;;5063551;28;20049;-80
2023/05/05 08:11:56;;;;;;;2.58;1.17;;;9.40;90.10;;;;;;5065164;28;20471;-82
2023/05/05 08:14:24;;;;;;;1.20;1.10;;;11.20;86.10;;;;;;5066086;28;20536;-79
2023/05/05 08:16:54;;;;;;;1.65;1.15;;;13.00;77.80;;;;;;5065808;28;20072;-81
2023/05/05 08:19:21;;;;;;;1.52;1.10;;;14.30;71.30;;;;;;5072726;28;20118;-81
2023/05/05 08:21:48;;;;;;;4.10;1.42;;;13.90;66.80;;;;;;5072927;28;20577;-78
2023/05/05 08:24:15;;;;;;;1.55;1.30;;;13.10;67.50;;;;;;5071666;28;20131;-81
2023/05/05 08:26:42;;;;;;;2.60;1.20;;;12.30;68.90;;;;;;5074300;28;20044;-81
2023/05/05 08:29:10;;;;;;;3.70;1.38;;;11.60;71.30;;;;;;5074708;28;20045;-80
2023/05/05 08:31:37;;;;;;;4.70;1.20;;;11.10;72.40;;;;;;5064909;28;20048;-79
2023/05/05 08:34:06;;;;;;;1.15;1.10;;;10.80;74.10;;;;;;5072244;28;20098;-78
2023/05/05 08:36:33;;;;;;;1.08;1.00;;;10.60;73.30;;;;;;5061713;28;20049;-80
2023/05/05 08:39:01;;;;;;;1.13;1.02;;;10.90;74.90;;;;;;5063521;28;20040;-83
2023/05/05 08:41:28;;;;;;;3.55;1.60;;;11.20;73.20;;;;;;5067654;28;20095;-78
2023/05/05 08:43:56;;;;;;;2.97;1.27;;;11.80;73.10;;;;;;5086331;28;20737;-83
2023/05/05 08:46:26;;;;;;;4.07;1.23;;;13.50;73.40;;;;;;5066639;28;20413;-82
2023/05/05 08:48:55;;;;;;;1.90;0.80;;;14.00;65.90;;;;;;5065961;28;20501;-80
2023/05/05 08:51:30;;;;;;;4.03;1.10;;;13.50;65.10;;;;;;5067420;28;20048;-81
2023/05/05 08:54:02;;;;;;;2.78;1.10;;;12.90;62.60;;;;;;5068756;28;20051;-80
2023/05/05 08:56:33;;;;;;;2.13;1.30;;;12.30;64.40;;;;;;5062109;28;20527;-82
2023/05/05 08:59:02;;;;;;;2.17;0.93;;;12.10;67.40;;;;;;5066604;28;20430;-83
2023/05/05 09:01:32;;;;;;;4.18;1.02;;;12.10;67.30;;;;;;5064833;28;20052;-82
2023/05/05 09:04:00;;;;;;;6.65;1.40;;;12.00;68.40;;;;;;5064884;28;20049;-81
2023/05/05 09:06:31;;;;;;;3.03;1.25;;;11.70;69.00;;;;;;5067501;28;20037;-82
2023/05/05 09:08:58;;;;;;;3.42;1.55;;;11.10;67.80;;;;;;5066962;28;20052;-86
2023/05/05 09:11:26;;;;;;;3.60;1.45;;;10.50;68.80;;;;;;5062157;28;20036;-81
2023/05/05 09:13:55;;;;;;;4.10;1.17;;;10.00;70.30;;;;;;5066773;28;20390;-82
2023/05/05 09:16:22;;;;;;;5.60;1.10;;;9.60;70.70;;;;;;5077526;28;20044;-81
2023/05/05 09:18:50;;;;;;;4.30;1.35;;;9.30;70.30;;;;;;5067787;28;20350;-81
2023/05/05 09:21:21;;;;;;;1.55;1.08;;;9.00;72.80;;;;;;5071225;28;20139;-84
2023/05/05 09:24:10;;;;;;;1.60;1.00;;;8.80;71.10;;;;;;5047660;28;20041;-83
2023/05/05 09:26:39;;;;;;;3.03;1.85;;;8.90;72.30;;;;;;5068636;28;20489;-81
2023/05/05 09:29:07;;;;;;;1.02;0.88;;;9.00;72.90;;;;;;5072582;28;20139;-81
2023/05/05 09:31:37;;;;;;;2.75;1.20;;;9.20;71.80;;;;;;5087719;28;20065;-83
2023/05/05 09:34:14;;;;;;;3.17;0.77;;;9.50;70.40;;;;;;5072290;28;20124;-83
2023/05/05 09:36:44;;;;;;;0.90;0.80;;;10.20;69.70;;;;;;5070497;28;20535;-79
2023/05/05 09:39:13;;;;;;;1.70;0.65;;;11.50;63.90;;;;;;5071350;28;20424;-80
2023/05/05 09:41:43;;;;;;;1.08;1.00;;;12.60;60.40;;;;;;5070885;28;20056;-82
2023/05/05 09:44:11;;;;;;;1.92;0.57;;;13.40;58.60;;;;;;5069138;28;20048;-82
2023/05/05 09:46:49;;;;;;;0.60;0.60;;;13.70;58.30;;;;;;5069688;28;20082;-80
2023/05/05 09:49:22;;;;;;;1.55;0.75;;;14.20;58.80;;;;;;5070009;28;20147;-83
2023/05/05 09:51:51;;;;;;;0.80;0.80;;;14.90;57.00;;;;;;5069852;28;20055;-81
2023/05/05 09:54:24;;;;;;;1.73;1.63;;;15.60;56.10;;;;;;5067341;28;20578;-81
2023/05/05 09:56:52;;;;;;;;;;;16.70;54.80;;;;;;5071559;28;20080;-81
2023/05/05 09:59:20;;;;;;;2.53;0.90;;;17.60;52.30;;;;;;5070225;28;19924;-81
2023/05/05 10:01:48;;;;;;;0.90;0.70;;;18.60;51.50;;;;;;5057101;28;20048;-79
2023/05/05 10:04:27;;;;;;;0.80;0.80;;;19.70;50.30;;;;;;5070053;28;20443;-80
2023/05/05 10:06:55;;;;;;;2.17;1.02;;;19.10;48.00;;;;;;5064131;28;20076;-79
2023/05/05 10:09:24;;;;;;;1.15;0.80;;;17.50;47.80;;;;;;5062831;28;20064;-79
2023/05/05 10:11:52;;;;;;;3.75;1.00;;;15.80;50.80;;;;;;5069135;28;20047;-79
2023/05/05 10:14:19;;;;;;;0.80;0.77;;;14.50;52.90;;;;;;5060332;28;20045;-78
2023/05/05 10:16:51;;;;;;;5.68;0.75;;;13.50;53.40;;;;;;5062114;28;20083;-72
2023/05/05 10:19:20;;;;;;;1.00;0.87;;;12.60;54.80;;;;;;5059079;28;20048;-72
2023/05/05 10:21:50;;;;;;;0.75;0.75;;;12.00;56.40;;;;;;5065807;28;20060;-72
2023/05/05 10:24:26;;;;;;;1.67;0.88;;;11.50;57.20;;;;;;5054945;28;20041;-72
2023/05/05 10:26:57;;;;;;;1.15;0.98;;;11.20;57.10;;;;;;5058256;28;20089;-71
2023/05/05 10:29:37;;;;;;;1.65;1.55;;;11.00;57.40;;;;;;5042267;28;20470;-73
2023/05/05 10:32:09;;;;;;;1.63;1.42;;;10.90;58.60;;;;;;5062702;28;20053;-71
2023/05/05 10:34:42;;;;;;;2.80;1.52;;;10.90;58.70;;;;;;5061585;28;20071;-73
2023/05/05 10:37:11;;;;;;;6.72;1.45;;;11.00;58.40;;;;;;5060981;28;20048;-73
2023/05/05 10:39:40;;;;;;;1.90;1.33;;;11.10;59.80;;;;;;5043909;28;20408;-78
2023/05/05 10:42:07;;;;;;;1.85;1.25;;;11.40;59.70;;;;;;5061985;28;20432;-76
2023/05/05 10:44:35;;;;;;;1.40;1.17;;;11.70;56.40;;;;;;5047575;28;20051;-79
2023/05/05 10:47:03;;;;;;;3.10;0.95;;;12.00;55.60;;;;;;5063639;28;20075;-78
2023/05/05 10:49:40;;;;;;;0.75;0.75;;;12.30;55.20;;;;;;5080117;28;20189;-78
2023/05/05 10:52:17;;;;;;;0.75;0.75;;;12.50;55.10;;;;;;5061098;28;20136;-78
2023/05/05 10:54:55;;;;;;;2.67;1.48;;;12.70;55.60;;;;;;5064223;28;20053;-78
2023/05/05 10:57:26;;;;;;;1.20;0.90;;;13.60;55.60;;;;;;5061547;28;20044;-78
2023/05/05 10:59:54;;;;;;;6.03;1.50;;;14.10;56.00;;;;;;5063370;28;20048;-79
2023/05/05 11:02:26;;;;;;;2.80;1.17;;;13.70;55.40;;;;;;5060443;28;20041;-78
2023/05/05 11:05:05;;;;;;;1.58;1.13;;;13.20;56.30;;;;;;5060056;28;20053;-80
2023/05/05 11:07:33;;;;;;;5.60;1.40;;;12.50;56.90;;;;;;5067436;28;20051;-78
2023/05/05 11:10:03;;;;;;;1.63;1.00;;;11.80;56.80;;;;;;5048974;28;20045;-78
2023/05/05 11:12:54;;;;;;;1.67;1.23;;;11.10;57.50;;;;;;5060345;28;20044;-79
2023/05/05 11:15:42;;;;;;;2.83;1.13;;;10.50;58.20;;;;;;5057715;28;20053;-80
2023/05/05 11:18:29;;;;;;;13.27;1.58;;;10.00;60.00;;;;;;5050632;28;20044;-80
2023/05/05 11:21:17;;;;;;;2.50;1.38;;;9.50;61.50;;;;;;5057946;28;20051;-80
2023/05/05 11:23:47;;;;;;;3.08;1.10;;;9.20;62.90;;;;;;5049268;28;20140;-79
2023/05/05 11:26:17;;;;;;;1.30;1.15;;;9.10;64.10;;;;;;5063814;28;20051;-80
2023/05/05 11:29:02;;;;;;;6.43;1.17;;;9.00;66.40;;;;;;5037514;28;20053;-80
2023/05/05 11:31:30;;;;;;;1.38;1.20;;;8.90;66.00;;;;;;5058886;28;20082;-77
2023/05/05 11:34:26;;;;;;;3.70;1.05;;;8.90;67.30;;;;;;5067559;28;20582;-77
2023/05/05 11:36:58;;;;;;;1.63;1.10;;;8.90;67.40;;;;;;5068479;28;20052;-77
2023/05/05 11:39:38;;;;;;;6.30;1.35;;;8.90;66.60;;;;;;5048182;28;20045;-77
2023/05/05 11:42:27;;;;;;;1.75;1.42;;;9.00;68.00;;;;;;5047877;28;20535;-78
2023/05/05 11:44:55;;;;;;;2.92;2.58;;;9.10;66.90;;;;;;5066953;28;20052;-72
2023/05/05 11:47:32;;;;;;;2.70;1.17;;;9.40;66.80;;;;;;5067762;28;20143;-73
2023/05/05 11:50:17;;;;;;;1.45;0.90;;;9.90;66.40;;;;;;5069401;28;20048;-72
2023/05/05 11:52:44;;;;;;;3.35;1.30;;;10.70;65.00;;;;;;5049939;28;20045;-73
2023/05/05 11:55:11;;;;;;;3.20;1.40;;;11.60;63.30;;;;;;5067575;28;20044;-73
2023/05/05 11:57:40;;;;;;;5.65;1.40;;;12.30;60.20;;;;;;5067803;28;20397;-72
2023/05/05 12:00:08;;;;;;;2.92;1.00;;;12.90;59.20;;;;;;5068909;28;20526;-72
2023/05/05 12:02:40;;;;;;;3.35;1.10;;;13.90;57.80;;;;;;5066014;28;20398;-73
2023/05/05 12:09:02;;;;;;;2.40;1.20;;;13.30;54.90;;;;;;4928664;29;20060;-74
2023/05/05 12:11:30;;;;;;;2.35;1.10;;;12.10;56.80;;;;;;4926243;29;20443;-80
2023/05/05 12:14:09;;;;;;;2.13;1.25;;;11.40;58.30;;;;;;4926270;29;20052;-77
2023/05/05 12:16:37;;;;;;;3.72;0.85;;;10.70;58.70;;;;;;4910025;29;20521;-79
2023/05/05 12:19:05;;;;;;;1.10;0.95;;;10.10;61.40;;;;;;4916231;29;20051;-79
2023/05/05 12:21:33;;;;;;;1.20;1.10;;;9.70;63.50;;;;;;4926962;29;20056;-79
2023/05/05 12:24:02;;;;;;;1.27;1.02;;;9.20;63.10;;;;;;4923417;29;20055;-80
2023/05/05 12:26:30;;;;;;;2.95;1.00;;;8.90;64.10;;;;;;4911114;29;20059;-79
2023/05/05 12:28:58;;;;;;;3.33;0.80;;;8.50;64.50;;;;;;4913016;29;20048;-74
2023/05/05 12:31:35;;;;;;;5.03;1.42;;;8.30;65.50;;;;;;4912360;29;20102;-74
2023/05/05 12:34:04;;;;;;;8.85;1.20;;;8.10;65.90;;;;;;4927472;29;20103;-72
2023/05/05 12:36:32;;;;;;;2.42;1.42;;;7.90;66.60;;;;;;4913464;29;20079;-73
2023/05/05 12:39:00;;;;;;;2.15;1.88;;;7.80;68.20;;;;;;4924629;29;20051;-72
2023/05/05 12:41:28;;;;;;;3.45;1.50;;;7.70;70.00;;;;;;4923662;29;20059;-73
2023/05/05 12:43:56;;;;;;;5.75;1.83;;;7.60;72.10;;;;;;4926658;29;20073;-72
2023/05/05 12:46:24;;;;;;;2.67;1.90;;;7.60;72.70;;;;;;4928280;29;20108;-74
2023/05/05 12:49:03;;;;;;;1.98;1.40;;;7.50;72.40;;;;;;4915001;29;20063;-73
2023/05/05 12:51:36;;;;;;;3.22;1.65;;;7.50;73.80;;;;;;4926976;29;20421;-73
2023/05/05 12:54:05;;;;;;;8.52;2.08;;;7.60;75.30;;;;;;4927208;29;20112;-73
2023/05/05 12:56:34;;;;;;;5.95;1.75;;;7.60;74.90;;;;;;4908686;29;20043;-73
2023/05/05 12:59:03;;;;;;;3.60;1.50;;;7.70;75.20;;;;;;4909589;29;20055;-80
2023/05/05 13:01:31;;;;;;;3.10;1.30;;;7.70;75.70;;;;;;4910598;29;20052;-78
2023/05/05 13:04:11;;;;;;;1.75;1.40;;;7.80;76.60;;;;;;4923595;29;20055;-79
2023/05/05 13:06:40;;;;;;;2.42;1.65;;;8.00;78.70;;;;;;4911325;29;20592;-77
2023/05/05 13:09:08;;;;;;;4.20;1.33;;;8.20;77.80;;;;;;4930843;29;20131;-74
2023/05/05 13:11:37;;;;;;;1.92;1.38;;;8.50;75.50;;;;;;4925046;29;20126;-72
2023/05/05 13:14:04;;;;;;;2.95;1.48;;;9.80;73.60;;;;;;4911040;29;20043;-77